Search for airport 
image banner adimage banner ad
image banner ad

SSBD - Sobradinho Airport

Located in Sobradinho, Brazil

ICAO - SSBD, IATA -

Data provided by Airmate  

General information

Coordinates: S29°23'47" W52°59'30"
Elevation is 1443 feet MSL.
Magnetic variation is -16° East
View others Airports in Rio Grande do Sul

Operational data

Open for public use
Current time UTC:
Current local time:
Weather at : SBSM - Santa Maria Airport ( 76 km )
METAR: SBSM 211800Z 10017KT 080V140 9999 BKN040 BKN080 28/21 Q1016
TAF: TAF SBSM 211500Z 2118/2206 09013KT 9999 BKN035 TX28/2118Z TN22/2205Z BECMG 2119/2121 SCT035 BECMG 2202/2204 09009KT RMK PDL
View NOTAMs / SUP AIP / TFR affecting this airport [VIEW]
Communications frequencies: [VIEW]

Runways:

Airport contact information

Address: Sobradinho Brazil

Satellite view of SSBD